createdAt,value
2023-02-19T00:01:10.160Z,9.40
2023-02-19T00:03:38.257Z,9.44
2023-02-19T00:06:07.008Z,9.32
2023-02-19T00:08:35.049Z,9.34
2023-02-19T00:11:07.381Z,9.38
2023-02-19T00:13:41.409Z,9.37
2023-02-19T00:16:16.845Z,9.36
2023-02-19T00:18:43.987Z,9.41
2023-02-19T00:21:10.899Z,9.37
2023-02-19T00:23:37.747Z,9.28
2023-02-19T00:26:17.560Z,9.31
2023-02-19T00:28:44.468Z,9.32
2023-02-19T00:31:21.485Z,9.33
2023-02-19T00:33:49.480Z,9.37
2023-02-19T00:36:16.723Z,9.29
2023-02-19T00:38:44.561Z,9.28
2023-02-19T00:41:21.134Z,9.20
2023-02-19T00:43:52.183Z,9.18
2023-02-19T00:46:21.475Z,9.14
2023-02-19T00:48:48.454Z,9.13
2023-02-19T00:51:15.205Z,9.13
2023-02-19T00:53:42.460Z,9.10
2023-02-19T00:56:09.204Z,9.11
2023-02-19T00:58:35.881Z,9.13
2023-02-19T01:01:02.913Z,9.08
2023-02-19T01:03:29.585Z,9.22
2023-02-19T01:05:56.055Z,9.23
2023-02-19T01:08:22.811Z,9.20
2023-02-19T01:10:49.394Z,9.21
2023-02-19T01:13:16.371Z,9.21
2023-02-19T01:15:42.936Z,9.13
2023-02-19T01:18:10.029Z,9.14
2023-02-19T01:20:40.025Z,9.22
2023-02-19T01:23:06.460Z,9.20
2023-02-19T01:25:32.902Z,9.21
2023-02-19T01:27:59.301Z,9.20
2023-02-19T01:30:25.801Z,9.19
2023-02-19T01:32:52.310Z,9.07
2023-02-19T01:35:18.829Z,9.07
2023-02-19T01:37:45.219Z,9.09
2023-02-19T01:40:11.649Z,9.04
2023-02-19T01:42:43.045Z,9.10
2023-02-19T01:45:24.850Z,9.14
2023-02-19T01:47:59.080Z,9.10
2023-02-19T01:50:28.770Z,9.11
2023-02-19T01:52:55.640Z,9.13
2023-02-19T01:55:23.170Z,9.16
2023-02-19T01:57:55.256Z,9.11
2023-02-19T02:00:24.300Z,9.04
2023-02-19T02:02:54.506Z,9.10
2023-02-19T02:05:52.611Z,9.07
2023-02-19T02:08:38.460Z,9.08
2023-02-19T02:11:08.585Z,9.04
2023-02-19T02:13:37.003Z,9.00
2023-02-19T02:16:25.680Z,9.02
2023-02-19T02:19:27.099Z,9.02
2023-02-19T02:22:06.813Z,8.98
2023-02-19T02:24:51.942Z,8.93
2023-02-19T02:27:21.019Z,9.00
2023-02-19T02:30:05.941Z,9.05
2023-02-19T02:32:53.395Z,9.06
2023-02-19T02:35:27.787Z,9.03
2023-02-19T02:38:00.620Z,9.04
2023-02-19T02:40:27.123Z,9.09
2023-02-19T02:42:58.074Z,9.13
2023-02-19T02:45:34.861Z,9.00
2023-02-19T02:48:20.136Z,9.09
2023-02-19T02:51:15.986Z,9.05
2023-02-19T02:54:15.457Z,9.02
2023-02-19T02:56:44.132Z,9.04
2023-02-19T02:59:13.441Z,8.97
2023-02-19T03:02:11.068Z,9.01
2023-02-19T03:05:06.609Z,9.02
2023-02-19T03:07:44.390Z,9.01
2023-02-19T03:10:15.462Z,8.93
2023-02-19T03:13:03.590Z,8.98
2023-02-19T03:15:56.124Z,9.09
2023-02-19T03:18:42.252Z,9.08
2023-02-19T03:21:10.142Z,9.07
2023-02-19T03:23:55.866Z,9.11
2023-02-19T03:26:24.381Z,9.11
2023-02-19T03:29:11.472Z,9.05
2023-02-19T03:31:41.270Z,9.13
2023-02-19T03:34:16.486Z,9.11
2023-02-19T03:37:02.223Z,9.13
2023-02-19T03:39:28.779Z,9.10
2023-02-19T03:41:55.133Z,9.13
2023-02-19T03:44:52.444Z,9.08
2023-02-19T03:47:25.184Z,9.12
2023-02-19T03:49:55.498Z,9.14
2023-02-19T03:52:27.360Z,9.16
2023-02-19T03:55:09.841Z,9.11
2023-02-19T03:58:14.860Z,9.17
2023-02-19T04:00:55.163Z,9.16
2023-02-19T04:03:31.414Z,9.20
2023-02-19T04:06:13.623Z,9.16
2023-02-19T04:08:44.137Z,9.16
2023-02-19T04:11:12.358Z,9.17
2023-02-19T04:13:45.890Z,9.15
2023-02-19T04:16:20.389Z,9.16
2023-02-19T04:18:52.930Z,9.11
2023-02-19T04:21:22.061Z,9.05
2023-02-19T04:23:49.333Z,9.12
2023-02-19T04:26:17.426Z,9.10
2023-02-19T04:28:44.214Z,9.13
2023-02-19T04:31:11.488Z,9.15
2023-02-19T04:33:38.497Z,9.13
2023-02-19T04:36:05.328Z,9.11
2023-02-19T04:38:31.753Z,9.02
2023-02-19T04:40:58.343Z,9.09
2023-02-19T04:43:24.821Z,9.13
2023-02-19T04:45:51.312Z,9.11
2023-02-19T04:48:17.780Z,9.12
2023-02-19T04:50:44.231Z,9.09
2023-02-19T04:53:10.650Z,9.11
2023-02-19T04:55:38.690Z,9.15
2023-02-19T04:58:05.206Z,9.06
2023-02-19T05:00:31.962Z,9.09
2023-02-19T05:02:58.411Z,9.10
2023-02-19T05:05:24.814Z,9.04
2023-02-19T05:07:51.230Z,9.04
2023-02-19T05:10:17.727Z,9.03
2023-02-19T05:12:44.273Z,9.07
2023-02-19T05:15:10.681Z,9.13
2023-02-19T05:17:37.860Z,9.09
2023-02-19T05:20:04.968Z,9.06
2023-02-19T05:22:31.419Z,9.05
2023-02-19T05:24:57.839Z,9.08
2023-02-19T05:27:24.297Z,9.05
2023-02-19T05:29:50.796Z,9.09
2023-02-19T05:32:17.498Z,9.11
2023-02-19T05:34:43.938Z,9.07
2023-02-19T05:37:10.458Z,9.12
2023-02-19T05:39:36.867Z,9.11
2023-02-19T05:42:03.414Z,9.03
2023-02-19T05:44:29.841Z,9.06
2023-02-19T05:46:56.234Z,9.04
2023-02-19T05:49:22.675Z,8.98
2023-02-19T05:51:52.469Z,8.97
2023-02-19T05:54:18.897Z,9.00
2023-02-19T05:56:45.410Z,9.05
2023-02-19T05:59:20.766Z,9.05
2023-02-19T06:01:49.021Z,9.02
2023-02-19T06:04:15.963Z,9.05
2023-02-19T06:06:42.704Z,9.09
2023-02-19T06:09:09.470Z,9.08
2023-02-19T06:11:36.612Z,9.09
2023-02-19T06:14:03.606Z,9.02
2023-02-19T06:16:32.143Z,9.06
2023-02-19T06:18:58.780Z,9.04
2023-02-19T06:21:25.226Z,9.05
2023-02-19T06:23:51.718Z,8.95
2023-02-19T06:26:20.729Z,8.96
2023-02-19T06:28:49.064Z,9.01
2023-02-19T06:31:16.356Z,8.98
2023-02-19T06:33:43.269Z,8.96
2023-02-19T06:36:18.391Z,8.92
2023-02-19T06:38:44.875Z,8.99
2023-02-19T06:41:13.364Z,9.00
2023-02-19T06:43:40.415Z,9.01
2023-02-19T06:46:07.781Z,9.02
2023-02-19T06:48:34.773Z,9.03
2023-02-19T06:51:01.332Z,9.06
2023-02-19T06:53:27.885Z,9.01
2023-02-19T06:56:02.605Z,8.96
2023-02-19T06:58:29.465Z,8.94
2023-02-19T07:00:56.346Z,9.03
2023-02-19T07:03:23.655Z,9.03
2023-02-19T07:05:50.386Z,8.96
2023-02-19T07:08:19.571Z,9.02
2023-02-19T07:10:46.057Z,9.03
2023-02-19T07:13:12.784Z,9.01
2023-02-19T07:15:39.269Z,8.97
2023-02-19T07:18:07.612Z,8.92
2023-02-19T07:20:34.082Z,8.96
2023-02-19T07:23:00.485Z,8.91
2023-02-19T07:25:26.896Z,8.88
2023-02-19T07:27:53.307Z,8.86
2023-02-19T07:30:19.926Z,8.89
2023-02-19T07:32:46.328Z,8.94
2023-02-19T07:35:12.745Z,8.92
2023-02-19T07:37:41.125Z,8.90
2023-02-19T07:40:07.909Z,8.91
2023-02-19T07:42:34.357Z,8.98
2023-02-19T07:45:00.859Z,9.01
2023-02-19T07:47:27.290Z,9.06
2023-02-19T07:49:53.674Z,9.06
2023-02-19T07:52:20.219Z,9.14
2023-02-19T07:54:46.655Z,9.07
2023-02-19T07:57:13.837Z,8.99
2023-02-19T07:59:40.476Z,9.08
2023-02-19T08:02:36.284Z,9.14
2023-02-19T08:05:03.534Z,9.14
2023-02-19T08:07:34.485Z,9.11
2023-02-19T08:10:20.130Z,9.04
2023-02-19T08:13:13.770Z,9.17
2023-02-19T08:15:40.220Z,9.14
2023-02-19T08:18:07.641Z,9.17
2023-02-19T08:20:34.084Z,9.28
2023-02-19T08:23:00.608Z,9.13
2023-02-19T08:25:27.260Z,9.21
2023-02-19T08:27:53.732Z,9.25
2023-02-19T08:30:20.302Z,9.19
2023-02-19T08:32:46.733Z,9.15
2023-02-19T08:35:13.212Z,9.17
2023-02-19T08:37:39.630Z,9.12
2023-02-19T08:40:06.112Z,9.20
2023-02-19T08:42:32.604Z,9.21
2023-02-19T08:44:59.094Z,9.13
2023-02-19T08:47:25.549Z,9.36
2023-02-19T08:49:51.972Z,9.60
2023-02-19T08:52:18.584Z,9.77
2023-02-19T08:54:45.373Z,9.62
2023-02-19T08:57:11.961Z,9.51
2023-02-19T08:59:38.396Z,9.37
2023-02-19T09:02:04.938Z,9.28
2023-02-19T09:04:31.594Z,9.37
2023-02-19T09:06:58.156Z,9.43
2023-02-19T09:09:24.562Z,9.36
2023-02-19T09:11:51.077Z,9.40
2023-02-19T09:14:17.465Z,9.50
2023-02-19T09:16:43.913Z,9.45
2023-02-19T09:19:10.304Z,9.45
2023-02-19T09:21:36.735Z,9.47
2023-02-19T09:24:03.374Z,9.31
2023-02-19T09:26:29.813Z,9.41
2023-02-19T09:28:56.423Z,9.66
2023-02-19T09:31:23.032Z,9.53
2023-02-19T09:33:49.578Z,9.55
2023-02-19T09:36:16.937Z,9.62
2023-02-19T09:38:43.380Z,9.80
2023-02-19T09:41:18.314Z,9.63
2023-02-19T09:43:45.148Z,10.18
2023-02-19T09:46:33.691Z,10.13
2023-02-19T09:49:08.033Z,9.74
2023-02-19T09:51:37.915Z,9.93
2023-02-19T09:54:07.755Z,10.05
2023-02-19T09:56:34.646Z,9.87
2023-02-19T09:59:01.672Z,9.96
2023-02-19T10:01:37.190Z,10.18
2023-02-19T10:04:03.984Z,10.54
2023-02-19T10:06:32.612Z,11.00
2023-02-19T10:09:23.683Z,11.48
2023-02-19T10:11:51.621Z,11.59
2023-02-19T10:14:39.568Z,11.53
2023-02-19T10:17:07.295Z,11.18
2023-02-19T10:19:35.469Z,10.52
2023-02-19T10:22:04.028Z,10.47
2023-02-19T10:24:30.974Z,10.45
2023-02-19T10:26:57.542Z,10.40
2023-02-19T10:29:24.885Z,10.44
2023-02-19T10:32:18.171Z,10.47
2023-02-19T10:34:44.737Z,10.41
2023-02-19T10:37:15.780Z,10.43
2023-02-19T10:39:43.539Z,10.30
2023-02-19T10:42:22.304Z,10.09
2023-02-19T10:44:54.270Z,10.18
2023-02-19T10:47:23.551Z,10.26
2023-02-19T10:49:51.826Z,10.36
2023-02-19T10:52:23.977Z,10.53
2023-02-19T10:54:57.854Z,10.72
2023-02-19T10:57:30.522Z,10.57
2023-02-19T11:00:03.960Z,11.05
2023-02-19T11:02:31.752Z,10.68
2023-02-19T11:05:16.626Z,10.49
2023-02-19T11:07:56.106Z,10.54
2023-02-19T11:10:29.916Z,10.18
2023-02-19T11:12:59.459Z,10.44
2023-02-19T11:15:32.334Z,10.43
2023-02-19T11:18:14.192Z,10.70
2023-02-19T11:20:54.517Z,11.00
2023-02-19T11:23:27.668Z,11.00
2023-02-19T11:25:57.376Z,11.20
2023-02-19T11:28:32.131Z,11.22
2023-02-19T11:31:19.828Z,11.02
2023-02-19T11:33:56.210Z,10.77
2023-02-19T11:36:35.764Z,10.74
2023-02-19T11:39:19.976Z,10.46
2023-02-19T11:41:59.752Z,10.32
2023-02-19T11:44:44.469Z,10.22
2023-02-19T11:47:37.190Z,10.52
2023-02-19T11:50:26.754Z,10.32
2023-02-19T11:53:14.739Z,10.33
2023-02-19T11:56:08.241Z,10.35
2023-02-19T11:59:00.848Z,10.27
2023-02-19T12:01:58.382Z,10.49
2023-02-19T12:05:12.859Z,10.40
2023-02-19T12:07:42.688Z,10.29
2023-02-19T12:10:28.509Z,10.10
2023-02-19T12:13:21.997Z,9.89
2023-02-19T12:16:15.236Z,9.89
2023-02-19T12:19:18.626Z,9.84
2023-02-19T12:22:08.247Z,9.85
2023-02-19T12:25:01.461Z,10.03
2023-02-19T12:27:40.040Z,10.19
2023-02-19T12:30:17.292Z,9.89
2023-02-19T12:33:15.407Z,9.89
2023-02-19T12:35:47.857Z,9.84
2023-02-19T12:38:41.522Z,9.98
2023-02-19T12:41:25.953Z,9.74
2023-02-19T12:44:04.481Z,9.96
2023-02-19T12:46:42.208Z,9.79
2023-02-19T12:49:33.240Z,9.85
2023-02-19T12:52:18.907Z,9.83
2023-02-19T12:54:48.336Z,9.91
2023-02-19T12:57:32.696Z,9.82
2023-02-19T13:00:16.296Z,9.75
2023-02-19T13:02:53.750Z,9.78
2023-02-19T13:05:38.227Z,9.73
2023-02-19T13:08:04.792Z,9.53
2023-02-19T13:10:41.321Z,9.79
2023-02-19T13:13:16.062Z,9.82
2023-02-19T13:15:48.493Z,9.60
2023-02-19T13:18:34.066Z,9.70
2023-02-19T13:21:02.019Z,9.71
2023-02-19T13:24:03.112Z,9.65
2023-02-19T13:26:50.956Z,9.74
2023-02-19T13:29:35.805Z,9.65
2023-02-19T13:32:27.611Z,9.76
2023-02-19T13:35:12.948Z,9.65
2023-02-19T13:37:39.670Z,9.61
2023-02-19T13:40:22.935Z,9.61
2023-02-19T13:42:58.798Z,9.60
2023-02-19T13:45:33.702Z,9.40
2023-02-19T13:48:12.540Z,9.44
2023-02-19T13:50:39.033Z,9.50
2023-02-19T13:53:43.208Z,9.46
2023-02-19T13:56:31.649Z,9.41
2023-02-19T13:59:24.900Z,9.29
2023-02-19T14:01:54.304Z,9.36
2023-02-19T14:04:23.538Z,9.21
2023-02-19T14:07:05.548Z,9.14
2023-02-19T14:09:39.911Z,9.24
2023-02-19T14:12:14.406Z,9.19
2023-02-19T14:14:45.852Z,9.20
2023-02-19T14:17:17.621Z,9.19
2023-02-19T14:19:46.423Z,8.92
2023-02-19T14:22:47.117Z,8.92
2023-02-19T14:25:22.632Z,8.93
2023-02-19T14:27:50.582Z,8.71
2023-02-19T14:30:17.540Z,8.65
2023-02-19T14:32:47.452Z,8.83
2023-02-19T14:35:22.453Z,8.89
2023-02-19T14:37:51.032Z,8.89
2023-02-19T14:40:31.012Z,8.86
2023-02-19T14:43:01.035Z,8.82
2023-02-19T14:45:29.514Z,8.89
2023-02-19T14:47:57.913Z,8.85
2023-02-19T14:50:31.393Z,8.92
2023-02-19T14:53:04.817Z,8.86
2023-02-19T14:55:38.626Z,8.75
2023-02-19T14:58:15.554Z,8.71
2023-02-19T15:00:43.143Z,8.84
2023-02-19T15:03:42.071Z,8.74
2023-02-19T15:06:14.429Z,8.74
2023-02-19T15:08:46.789Z,8.66
2023-02-19T15:11:19.157Z,8.63
2023-02-19T15:13:52.559Z,8.59
2023-02-19T15:16:21.294Z,8.63
2023-02-19T15:18:49.556Z,8.82
2023-02-19T15:21:24.547Z,8.62
2023-02-19T15:23:55.556Z,8.79
2023-02-19T15:26:35.014Z,8.78
2023-02-19T15:29:05.128Z,8.66
2023-02-19T15:31:31.740Z,8.64
2023-02-19T15:33:58.242Z,8.73
2023-02-19T15:36:31.518Z,8.52
2023-02-19T15:39:01.787Z,8.66
2023-02-19T15:41:33.505Z,8.77
2023-02-19T15:44:28.921Z,8.67
2023-02-19T15:46:57.218Z,8.73
2023-02-19T15:49:36.081Z,8.57
2023-02-19T15:52:10.909Z,8.44
2023-02-19T15:55:17.821Z,8.55
2023-02-19T15:57:50.611Z,8.34
2023-02-19T16:00:37.161Z,8.18
2023-02-19T16:03:05.612Z,8.38
2023-02-19T16:05:39.343Z,8.43
2023-02-19T16:08:19.384Z,8.57
2023-02-19T16:10:54.318Z,8.38
2023-02-19T16:13:24.179Z,8.34
2023-02-19T16:16:01.820Z,8.41
2023-02-19T16:18:28.529Z,8.28
2023-02-19T16:20:55.054Z,8.36
2023-02-19T16:23:24.892Z,8.39
2023-02-19T16:26:02.455Z,8.24
2023-02-19T16:28:35.159Z,8.14
2023-02-19T16:31:04.425Z,8.22
2023-02-19T16:33:36.896Z,8.23
2023-02-19T16:36:20.488Z,8.25
2023-02-19T16:39:09.151Z,8.30
2023-02-19T16:41:47.674Z,8.23
2023-02-19T16:44:27.463Z,8.22
2023-02-19T16:47:05.930Z,8.09
2023-02-19T16:49:32.519Z,8.17
2023-02-19T16:52:02.100Z,8.16
2023-02-19T16:54:29.729Z,8.16
2023-02-19T16:56:56.159Z,8.19
2023-02-19T16:59:22.672Z,8.02
2023-02-19T17:01:49.176Z,7.72
2023-02-19T17:04:15.973Z,7.95
2023-02-19T17:06:42.559Z,8.09
2023-02-19T17:09:09.721Z,8.07
2023-02-19T17:11:36.490Z,8.10
2023-02-19T17:14:03.266Z,8.05
2023-02-19T17:16:39.404Z,8.03
2023-02-19T17:19:12.239Z,8.01
2023-02-19T17:21:38.878Z,8.01
2023-02-19T17:24:05.583Z,8.04
2023-02-19T17:26:32.842Z,8.00
2023-02-19T17:29:00.812Z,7.90
2023-02-19T17:31:28.076Z,7.95
2023-02-19T17:33:54.797Z,7.94
2023-02-19T17:36:30.830Z,7.87
2023-02-19T17:39:01.966Z,7.92
2023-02-19T17:41:28.866Z,8.00
2023-02-19T17:43:55.578Z,7.95
2023-02-19T17:46:25.464Z,7.85
2023-02-19T17:48:52.927Z,7.79
2023-02-19T17:51:19.679Z,7.74
2023-02-19T17:53:48.738Z,7.79
2023-02-19T17:56:18.205Z,7.78
2023-02-19T17:58:44.821Z,7.85
2023-02-19T18:01:11.965Z,7.76
2023-02-19T18:03:38.727Z,7.80
2023-02-19T18:06:05.638Z,7.84
2023-02-19T18:08:32.187Z,7.60
2023-02-19T18:10:58.692Z,7.71
2023-02-19T18:13:25.294Z,7.73
2023-02-19T18:15:53.466Z,7.68
2023-02-19T18:18:20.685Z,7.68
2023-02-19T18:20:47.377Z,7.55
2023-02-19T18:23:13.843Z,7.64
2023-02-19T18:25:40.442Z,7.59
2023-02-19T18:28:06.932Z,7.68
2023-02-19T18:30:33.488Z,7.66
2023-02-19T18:33:00.155Z,7.63
2023-02-19T18:35:26.735Z,7.55
2023-02-19T18:37:54.559Z,7.63
2023-02-19T18:40:22.602Z,7.62
2023-02-19T18:42:49.521Z,7.52
2023-02-19T18:45:16.209Z,7.46
2023-02-19T18:47:42.826Z,7.42
2023-02-19T18:50:10.731Z,7.43
2023-02-19T18:52:37.180Z,7.39
2023-02-19T18:55:03.862Z,7.33
2023-02-19T18:57:30.356Z,7.30
2023-02-19T18:59:56.840Z,7.27
2023-02-19T19:02:23.407Z,7.17
2023-02-19T19:04:52.021Z,7.25
2023-02-19T19:07:19.673Z,7.27
2023-02-19T19:09:46.875Z,7.19
2023-02-19T19:12:13.876Z,6.96
2023-02-19T19:14:40.301Z,7.02
2023-02-19T19:17:06.908Z,7.04
2023-02-19T19:19:33.414Z,7.02
2023-02-19T19:21:59.936Z,6.91
2023-02-19T19:24:26.406Z,6.83
2023-02-19T19:26:53.190Z,6.87
2023-02-19T19:29:22.111Z,6.86
2023-02-19T19:31:49.180Z,6.71
2023-02-19T19:34:16.919Z,6.76
2023-02-19T19:36:44.068Z,6.86
2023-02-19T19:39:10.610Z,6.74
2023-02-19T19:41:37.164Z,6.84
2023-02-19T19:44:08.151Z,6.60
2023-02-19T19:46:34.701Z,6.52
2023-02-19T19:49:01.304Z,6.52
2023-02-19T19:51:35.172Z,6.47
2023-02-19T19:54:04.112Z,6.52
2023-02-19T19:56:31.081Z,6.55
2023-02-19T19:58:57.571Z,6.43
2023-02-19T20:01:24.147Z,6.37
2023-02-19T20:03:53.662Z,6.46
2023-02-19T20:06:28.462Z,6.30
2023-02-19T20:08:55.301Z,6.26
2023-02-19T20:11:21.947Z,6.16
2023-02-19T20:13:48.640Z,6.13
2023-02-19T20:16:15.271Z,6.28
2023-02-19T20:18:42.312Z,6.01
2023-02-19T20:21:10.513Z,6.02
2023-02-19T20:23:40.009Z,6.09
2023-02-19T20:26:07.102Z,6.09
2023-02-19T20:28:33.712Z,6.12
2023-02-19T20:31:00.454Z,6.05
2023-02-19T20:33:26.962Z,6.02
2023-02-19T20:35:53.439Z,6.11
2023-02-19T20:38:19.895Z,6.15
2023-02-19T20:40:46.401Z,6.20
2023-02-19T20:43:12.820Z,5.91
2023-02-19T20:45:41.018Z,5.83
2023-02-19T20:48:07.483Z,5.92
2023-02-19T20:50:33.952Z,6.04
2023-02-19T20:53:00.454Z,5.96
2023-02-19T20:55:27.043Z,5.95
2023-02-19T20:57:53.454Z,5.85
2023-02-19T21:00:20.512Z,5.91
2023-02-19T21:02:47.053Z,5.91
2023-02-19T21:05:13.626Z,5.92
2023-02-19T21:07:40.056Z,5.87
2023-02-19T21:10:07.078Z,5.88
2023-02-19T21:12:33.878Z,5.71
2023-02-19T21:15:00.463Z,5.77
2023-02-19T21:17:26.965Z,5.85
2023-02-19T21:19:53.375Z,5.79
2023-02-19T21:22:19.883Z,5.65
2023-02-19T21:24:49.564Z,5.65
2023-02-19T21:27:16.069Z,5.68
2023-02-19T21:29:42.488Z,5.56
2023-02-19T21:32:09.050Z,5.52
2023-02-19T21:34:35.535Z,5.62
2023-02-19T21:37:02.167Z,5.58
2023-02-19T21:39:30.557Z,5.69
2023-02-19T21:41:58.711Z,5.57
2023-02-19T21:44:25.245Z,5.63
2023-02-19T21:46:51.772Z,5.62
2023-02-19T21:49:18.310Z,5.65
2023-02-19T21:51:45.519Z,5.50
2023-02-19T21:54:17.949Z,5.66
2023-02-19T21:56:44.516Z,5.60
2023-02-19T21:59:11.124Z,5.61
2023-02-19T22:01:42.142Z,5.72
2023-02-19T22:04:10.905Z,5.52
2023-02-19T22:06:39.205Z,5.50
2023-02-19T22:09:06.106Z,5.58
2023-02-19T22:11:32.749Z,5.49
2023-02-19T22:13:59.944Z,5.51
2023-02-19T22:16:26.614Z,5.57
2023-02-19T22:18:55.967Z,5.51
2023-02-19T22:21:24.268Z,5.54
2023-02-19T22:23:52.671Z,5.56
2023-02-19T22:26:26.826Z,5.46
2023-02-19T22:28:54.112Z,5.43
2023-02-19T22:31:22.447Z,5.46
2023-02-19T22:33:48.973Z,5.52
2023-02-19T22:36:19.870Z,5.40
2023-02-19T22:38:47.332Z,5.37
2023-02-19T22:41:15.071Z,5.30
2023-02-19T22:43:41.725Z,5.36
2023-02-19T22:46:14.981Z,5.35
2023-02-19T22:48:41.718Z,5.38
2023-02-19T22:51:17.382Z,5.37
2023-02-19T22:53:44.060Z,5.43
2023-02-19T22:56:11.037Z,5.32
2023-02-19T22:58:37.883Z,5.27
2023-02-19T23:01:04.594Z,5.39
2023-02-19T23:03:31.012Z,5.44
2023-02-19T23:05:57.685Z,5.49
2023-02-19T23:08:24.171Z,5.38
2023-02-19T23:10:50.876Z,5.39
2023-02-19T23:13:17.392Z,5.21
2023-02-19T23:15:43.861Z,5.27
2023-02-19T23:18:10.273Z,5.22
2023-02-19T23:20:36.818Z,5.18
2023-02-19T23:23:03.257Z,5.09
2023-02-19T23:25:29.700Z,5.08
2023-02-19T23:27:56.104Z,5.06
2023-02-19T23:30:22.828Z,4.99
2023-02-19T23:32:49.241Z,4.92
2023-02-19T23:35:15.827Z,5.09
2023-02-19T23:37:42.377Z,5.09
2023-02-19T23:40:09.568Z,5.16
2023-02-19T23:42:37.383Z,5.12
2023-02-19T23:45:04.109Z,5.13
2023-02-19T23:47:30.814Z,5.16
2023-02-19T23:49:57.325Z,5.16
2023-02-19T23:52:23.756Z,5.26
2023-02-19T23:54:50.217Z,5.24
2023-02-19T23:57:16.705Z,5.29
2023-02-19T23:59:43.236Z,5.18
